createdAt,value
2022-11-19T00:01:24.370Z,72.76
2022-11-19T00:03:54.961Z,72.75
2022-11-19T00:06:28.194Z,72.01
2022-11-19T00:08:59.255Z,72.02
2022-11-19T00:11:44.634Z,72.43
2022-11-19T00:14:19.115Z,72.24
2022-11-19T00:16:49.632Z,72.56
2022-11-19T00:19:20.511Z,73.15
2022-11-19T00:21:51.647Z,73.39
2022-11-19T00:24:22.751Z,74.02
2022-11-19T00:26:55.954Z,73.44
2022-11-19T00:29:26.358Z,72.91
2022-11-19T00:31:56.702Z,73.13
2022-11-19T00:34:27.118Z,73.13
2022-11-19T00:36:57.630Z,73.32
2022-11-19T00:39:28.136Z,74.02
2022-11-19T00:42:01.176Z,73.99
2022-11-19T00:44:37.013Z,74.05
2022-11-19T00:47:08.313Z,73.39
2022-11-19T00:49:38.810Z,73.01
2022-11-19T00:52:09.282Z,73.10
2022-11-19T00:54:39.811Z,73.03
2022-11-19T00:57:13.057Z,72.72
2022-11-19T00:59:43.544Z,73.26
2022-11-19T01:02:14.029Z,74.32
2022-11-19T01:04:44.435Z,74.01
2022-11-19T01:07:14.832Z,74.05
2022-11-19T01:09:47.393Z,74.09
2022-11-19T01:12:20.382Z,74.08
2022-11-19T01:14:51.052Z,73.96
2022-11-19T01:17:21.480Z,73.84
2022-11-19T01:19:52.048Z,73.82
2022-11-19T01:22:22.414Z,73.55
2022-11-19T01:24:52.765Z,73.93
2022-11-19T01:27:25.756Z,74.17
2022-11-19T01:29:56.152Z,74.48
2022-11-19T01:32:26.483Z,74.52
2022-11-19T01:34:56.838Z,73.89
2022-11-19T01:37:27.485Z,74.55
2022-11-19T01:39:57.946Z,74.99
2022-11-19T01:42:46.955Z,74.60
2022-11-19T01:45:31.047Z,74.62
2022-11-19T01:48:06.538Z,74.94
2022-11-19T01:50:41.926Z,74.66
2022-11-19T01:53:12.931Z,74.97
2022-11-19T01:55:46.254Z,75.10
2022-11-19T01:58:24.505Z,75.23
2022-11-19T02:00:55.422Z,74.75
2022-11-19T02:03:26.084Z,75.13
2022-11-19T02:05:57.303Z,75.07
2022-11-19T02:08:43.083Z,74.75
2022-11-19T02:11:49.543Z,75.11
2022-11-19T02:14:44.230Z,75.46
2022-11-19T02:17:26.004Z,75.39
2022-11-19T02:20:30.112Z,75.67
2022-11-19T02:23:44.674Z,75.99
2022-11-19T02:27:03.019Z,76.14
2022-11-19T02:30:07.016Z,76.03
2022-11-19T02:32:44.959Z,76.37
2022-11-19T02:35:24.205Z,76.74
2022-11-19T02:38:03.993Z,76.37
2022-11-19T02:40:42.475Z,76.71
2022-11-19T02:43:20.756Z,77.03
2022-11-19T02:45:57.091Z,77.19
2022-11-19T02:48:34.095Z,77.18
2022-11-19T02:51:07.680Z,77.00
2022-11-19T02:53:38.461Z,76.91
2022-11-19T02:56:18.000Z,77.06
2022-11-19T02:59:07.681Z,76.92
2022-11-19T03:01:57.663Z,76.95
2022-11-19T03:04:33.029Z,77.22
2022-11-19T03:07:08.823Z,77.35
2022-11-19T03:09:45.905Z,77.36
2022-11-19T03:12:26.272Z,77.69
2022-11-19T03:15:13.679Z,77.79
2022-11-19T03:18:07.725Z,77.67
2022-11-19T03:20:43.997Z,77.60
2022-11-19T03:23:21.413Z,77.92
2022-11-19T03:25:56.795Z,77.98
2022-11-19T03:28:33.713Z,78.17
2022-11-19T03:31:05.560Z,78.01
2022-11-19T03:33:44.735Z,78.12
2022-11-19T03:36:21.702Z,77.70
2022-11-19T03:38:59.167Z,77.87
2022-11-19T03:41:31.234Z,78.14
2022-11-19T03:44:08.306Z,78.13
2022-11-19T03:46:40.572Z,78.28
2022-11-19T03:49:16.680Z,78.32
2022-11-19T03:51:53.731Z,78.35
2022-11-19T03:54:24.487Z,78.37
2022-11-19T03:56:55.920Z,78.28
2022-11-19T03:59:29.926Z,78.34
2022-11-19T04:02:05.509Z,78.48
2022-11-19T04:04:38.749Z,78.40
2022-11-19T04:07:12.334Z,78.56
2022-11-19T04:09:44.207Z,78.99
2022-11-19T04:12:21.136Z,79.21
2022-11-19T04:14:52.084Z,78.80
2022-11-19T04:17:23.235Z,78.81
2022-11-19T04:19:56.350Z,78.69
2022-11-19T04:22:26.737Z,78.51
2022-11-19T04:24:57.154Z,78.47
2022-11-19T04:27:27.537Z,78.64
2022-11-19T04:29:57.874Z,78.74
2022-11-19T04:32:28.323Z,78.25
2022-11-19T04:35:01.327Z,78.26
2022-11-19T04:37:31.775Z,78.08
2022-11-19T04:40:02.117Z,77.98
2022-11-19T04:42:32.443Z,77.86
2022-11-19T04:45:02.902Z,77.86
2022-11-19T04:47:33.404Z,77.98
2022-11-19T04:50:06.803Z,77.98
2022-11-19T04:52:40.794Z,77.68
2022-11-19T04:55:13.882Z,78.17
2022-11-19T04:57:44.261Z,78.16
2022-11-19T05:00:17.840Z,77.94
2022-11-19T05:02:48.415Z,77.95
2022-11-19T05:05:21.603Z,77.90
2022-11-19T05:07:51.975Z,77.83
2022-11-19T05:10:22.531Z,78.05
2022-11-19T05:12:52.954Z,78.16
2022-11-19T05:15:23.354Z,78.34
2022-11-19T05:17:53.856Z,78.14
2022-11-19T05:20:26.956Z,78.08
2022-11-19T05:22:57.403Z,77.86
2022-11-19T05:25:27.919Z,77.99
2022-11-19T05:27:58.447Z,78.32
2022-11-19T05:30:28.910Z,78.13
2022-11-19T05:32:59.366Z,77.76
2022-11-19T05:35:32.498Z,77.97
2022-11-19T05:38:03.023Z,77.76
2022-11-19T05:40:33.464Z,77.13
2022-11-19T05:43:08.322Z,77.22
2022-11-19T05:45:38.933Z,77.36
2022-11-19T05:48:09.946Z,77.64
2022-11-19T05:50:44.918Z,77.63
2022-11-19T05:53:15.256Z,77.43
2022-11-19T05:55:45.657Z,77.24
2022-11-19T05:58:16.445Z,77.44
2022-11-19T06:00:47.002Z,77.60
2022-11-19T06:03:17.513Z,77.77
2022-11-19T06:05:50.648Z,78.00
2022-11-19T06:08:21.105Z,77.71
2022-11-19T06:10:51.555Z,77.55
2022-11-19T06:13:21.937Z,77.94
2022-11-19T06:15:52.268Z,77.79
2022-11-19T06:18:22.566Z,78.23
2022-11-19T06:20:55.538Z,78.21
2022-11-19T06:23:25.877Z,78.52
2022-11-19T06:25:57.831Z,78.19
2022-11-19T06:28:28.205Z,78.09
2022-11-19T06:30:58.595Z,77.83
2022-11-19T06:33:29.150Z,77.32
2022-11-19T06:36:02.231Z,77.69
2022-11-19T06:38:32.551Z,77.59
2022-11-19T06:41:02.958Z,77.33
2022-11-19T06:43:33.305Z,77.73
2022-11-19T06:46:03.692Z,77.38
2022-11-19T06:48:34.045Z,77.22
2022-11-19T06:51:08.020Z,76.83
2022-11-19T06:53:38.618Z,76.79
2022-11-19T06:56:10.895Z,76.25
2022-11-19T06:58:41.459Z,76.07
2022-11-19T07:01:11.902Z,76.04
2022-11-19T07:03:42.236Z,76.12
2022-11-19T07:06:15.212Z,75.93
2022-11-19T07:08:45.550Z,76.16
2022-11-19T07:11:31.256Z,76.01
2022-11-19T07:14:03.615Z,76.16
2022-11-19T07:16:36.986Z,75.63
2022-11-19T07:19:09.919Z,75.30
2022-11-19T07:21:42.866Z,75.27
2022-11-19T07:24:13.985Z,75.47
2022-11-19T07:26:44.632Z,75.04
2022-11-19T07:29:18.081Z,75.02
2022-11-19T07:31:50.728Z,74.58
2022-11-19T07:34:21.887Z,74.92
2022-11-19T07:36:55.623Z,75.28
2022-11-19T07:39:26.366Z,75.09
2022-11-19T07:42:09.190Z,75.01
2022-11-19T07:44:43.988Z,74.84
2022-11-19T07:47:14.746Z,74.74
2022-11-19T07:49:45.218Z,74.57
2022-11-19T07:52:18.214Z,74.02
2022-11-19T07:54:48.643Z,73.20
2022-11-19T07:57:19.070Z,73.03
2022-11-19T07:59:49.456Z,73.07
2022-11-19T08:02:20.390Z,72.22
2022-11-19T08:04:50.831Z,71.03
2022-11-19T08:07:24.044Z,68.78
2022-11-19T08:09:54.478Z,67.33
2022-11-19T08:12:24.867Z,66.40
2022-11-19T08:14:55.313Z,66.92
2022-11-19T08:17:38.100Z,65.18
2022-11-19T08:20:10.548Z,62.32
2022-11-19T08:22:43.544Z,59.04
2022-11-19T08:25:13.992Z,56.73
2022-11-19T08:27:44.312Z,56.36
2022-11-19T08:30:16.397Z,57.11
2022-11-19T08:32:46.810Z,56.16
2022-11-19T08:35:17.348Z,55.22
2022-11-19T08:37:51.495Z,52.88
2022-11-19T08:40:22.426Z,52.23
2022-11-19T08:43:07.789Z,51.10
2022-11-19T08:45:40.810Z,50.98
2022-11-19T08:48:13.625Z,50.98
2022-11-19T08:50:45.444Z,51.29
2022-11-19T08:53:18.464Z,50.68
2022-11-19T08:55:53.985Z,48.89
2022-11-19T08:58:24.598Z,48.75
2022-11-19T09:00:55.176Z,48.46
2022-11-19T09:03:25.840Z,49.14
2022-11-19T09:06:02.348Z,49.28
2022-11-19T09:08:36.338Z,49.72
2022-11-19T09:11:10.622Z,48.64
2022-11-19T09:13:41.512Z,46.81
2022-11-19T09:16:13.358Z,45.75
2022-11-19T09:18:44.227Z,44.58
2022-11-19T09:21:15.770Z,42.43
2022-11-19T09:23:48.804Z,41.15
2022-11-19T09:26:21.652Z,41.49
2022-11-19T09:28:52.574Z,40.30
2022-11-19T09:31:23.821Z,40.28
2022-11-19T09:33:55.598Z,40.54
2022-11-19T09:36:25.986Z,40.07
2022-11-19T09:39:03.779Z,39.37
2022-11-19T09:41:51.673Z,39.03
2022-11-19T09:44:43.543Z,39.26
2022-11-19T09:47:28.891Z,40.01
2022-11-19T09:50:09.848Z,39.67
2022-11-19T09:52:47.288Z,41.14
2022-11-19T09:55:26.624Z,38.41
2022-11-19T09:57:59.623Z,38.11
2022-11-19T10:00:32.991Z,37.91
2022-11-19T10:03:15.334Z,37.35
2022-11-19T10:06:04.452Z,37.04
2022-11-19T10:08:52.528Z,36.43
2022-11-19T10:11:42.483Z,36.52
2022-11-19T10:14:25.829Z,37.15
2022-11-19T10:17:07.526Z,37.17
2022-11-19T10:19:52.277Z,37.82
2022-11-19T10:22:28.420Z,37.90
2022-11-19T10:25:06.546Z,37.77
2022-11-19T10:27:46.174Z,37.41
2022-11-19T10:30:20.636Z,37.27
2022-11-19T10:33:00.693Z,36.74
2022-11-19T10:35:34.574Z,37.30
2022-11-19T10:38:08.469Z,41.26
2022-11-19T10:40:46.770Z,36.02
2022-11-19T10:43:30.844Z,37.52
2022-11-19T10:46:04.414Z,36.64
2022-11-19T10:48:43.447Z,36.80
2022-11-19T10:51:20.825Z,35.14
2022-11-19T10:53:52.513Z,35.75
2022-11-19T10:56:26.317Z,35.90
2022-11-19T10:59:06.594Z,35.08
2022-11-19T11:01:41.240Z,34.88
2022-11-19T11:04:23.259Z,33.70
2022-11-19T11:06:57.820Z,32.54
2022-11-19T11:09:39.800Z,29.92
2022-11-19T11:12:30.416Z,29.25
2022-11-19T11:15:17.535Z,28.26
2022-11-19T11:17:50.044Z,28.23
2022-11-19T11:20:29.027Z,26.16
2022-11-19T11:23:08.775Z,26.03
2022-11-19T11:25:41.817Z,25.72
2022-11-19T11:28:18.538Z,24.86
2022-11-19T11:31:00.070Z,24.16
2022-11-19T11:33:35.544Z,24.10
2022-11-19T11:36:10.748Z,23.41
2022-11-19T11:38:47.732Z,22.75
2022-11-19T11:44:23.247Z,22.89
2022-11-19T11:46:59.529Z,23.82
2022-11-19T11:49:35.181Z,24.07
2022-11-19T11:52:20.448Z,26.03
2022-11-19T11:55:03.265Z,27.37
2022-11-19T11:57:36.901Z,29.32
2022-11-19T12:00:40.393Z,31.47
2022-11-19T12:03:18.852Z,30.79
2022-11-19T12:06:03.271Z,31.33
2022-11-19T12:08:51.074Z,31.00
2022-11-19T12:11:48.868Z,28.07
2022-11-19T12:14:24.683Z,26.80
2022-11-19T12:17:11.981Z,25.18
2022-11-19T12:20:08.447Z,23.18
2022-11-19T12:22:53.435Z,22.28
2022-11-19T12:25:36.535Z,21.46
2022-11-19T12:28:37.674Z,19.78
2022-11-19T12:31:22.808Z,19.93
2022-11-19T12:34:11.430Z,19.52
2022-11-19T12:36:56.954Z,19.74
2022-11-19T12:39:41.283Z,18.95
2022-11-19T12:42:33.060Z,19.30
2022-11-19T12:45:13.398Z,19.21
2022-11-19T12:48:03.478Z,18.63
2022-11-19T12:50:45.198Z,18.04
2022-11-19T12:53:35.913Z,17.79
2022-11-19T12:56:22.434Z,18.19
2022-11-19T12:59:03.925Z,18.98
2022-11-19T13:01:39.228Z,19.89
2022-11-19T13:04:18.807Z,20.97
2022-11-19T13:06:56.156Z,22.45
2022-11-19T13:09:48.932Z,24.52
2022-11-19T13:12:24.489Z,25.93
2022-11-19T13:14:59.927Z,27.51
2022-11-19T13:17:36.753Z,28.90
2022-11-19T13:20:15.185Z,30.40
2022-11-19T13:22:49.452Z,31.20
2022-11-19T13:25:27.667Z,31.91
2022-11-19T13:28:03.977Z,33.65
2022-11-19T13:30:37.582Z,33.70
2022-11-19T13:33:21.118Z,34.20
2022-11-19T13:36:03.535Z,34.79
2022-11-19T13:38:45.176Z,34.26
2022-11-19T13:41:25.180Z,33.84
2022-11-19T13:44:11.146Z,34.43
2022-11-19T13:46:46.317Z,34.43
2022-11-19T13:49:22.982Z,33.40
2022-11-19T13:52:01.501Z,32.55
2022-11-19T13:54:38.739Z,32.79
2022-11-19T13:57:28.005Z,32.94
2022-11-19T14:00:03.710Z,33.59
2022-11-19T14:03:13.406Z,34.45
2022-11-19T14:06:07.929Z,35.44
2022-11-19T14:09:03.681Z,35.81
2022-11-19T14:12:20.998Z,35.81
2022-11-19T14:15:46.316Z,36.94
2022-11-19T14:18:39.898Z,38.13
2022-11-19T14:22:00.634Z,38.61
2022-11-19T14:25:15.720Z,39.57
2022-11-19T14:27:49.108Z,41.54
2022-11-19T14:30:22.779Z,41.54
2022-11-19T14:32:55.135Z,42.12
2022-11-19T14:35:38.411Z,42.68
2022-11-19T14:38:37.244Z,43.61
2022-11-19T14:41:19.073Z,44.15
2022-11-19T14:44:15.341Z,44.80
2022-11-19T14:46:48.664Z,46.22
2022-11-19T14:49:35.861Z,46.48
2022-11-19T14:52:18.350Z,46.11
2022-11-19T14:54:56.460Z,46.72
2022-11-19T14:57:33.761Z,47.13
2022-11-19T15:00:10.574Z,47.48
2022-11-19T15:02:45.916Z,48.05
2022-11-19T15:05:23.459Z,48.80
2022-11-19T15:07:56.558Z,49.44
2022-11-19T15:10:49.230Z,49.48
2022-11-19T15:13:26.740Z,50.32
2022-11-19T15:16:08.914Z,50.80
2022-11-19T15:19:20.466Z,51.41
2022-11-19T15:22:12.811Z,51.73
2022-11-19T15:25:05.425Z,51.82
2022-11-19T15:28:02.472Z,52.15
2022-11-19T15:30:52.231Z,52.38
2022-11-19T15:34:05.129Z,53.43
2022-11-19T15:36:39.778Z,55.00
2022-11-19T15:39:19.866Z,56.25
2022-11-19T15:42:14.132Z,58.63
2022-11-19T15:44:52.655Z,61.19
2022-11-19T15:47:29.268Z,61.84
2022-11-19T15:50:03.568Z,62.93
2022-11-19T15:52:35.328Z,62.74
2022-11-19T15:55:20.462Z,63.41
2022-11-19T15:57:56.136Z,63.96
2022-11-19T16:00:27.430Z,63.98
2022-11-19T16:02:58.427Z,64.49
2022-11-19T16:05:34.197Z,65.32
2022-11-19T16:08:12.204Z,65.65
2022-11-19T16:10:45.343Z,66.14
2022-11-19T16:13:42.002Z,66.92
2022-11-19T16:16:31.727Z,67.55
2022-11-19T16:19:02.381Z,67.32
2022-11-19T16:21:40.937Z,66.48
2022-11-19T16:24:31.839Z,65.93
2022-11-19T16:27:04.542Z,66.26
2022-11-19T16:29:39.338Z,67.21
2022-11-19T16:32:10.464Z,67.64
2022-11-19T16:34:40.949Z,68.08
2022-11-19T16:37:16.753Z,67.93
2022-11-19T16:39:53.790Z,67.92
2022-11-19T16:42:27.167Z,67.12
2022-11-19T16:45:00.032Z,66.99
2022-11-19T16:47:33.780Z,67.37
2022-11-19T16:50:08.242Z,67.70
2022-11-19T16:52:44.700Z,67.65
2022-11-19T16:55:49.327Z,67.60
2022-11-19T16:58:25.732Z,68.38
2022-11-19T17:00:59.819Z,69.02
2022-11-19T17:03:39.783Z,68.61
2022-11-19T17:06:19.712Z,68.60
2022-11-19T17:09:00.118Z,68.31
2022-11-19T17:12:03.379Z,68.87
2022-11-19T17:14:53.015Z,69.22
2022-11-19T17:17:41.320Z,69.58
2022-11-19T17:21:02.632Z,69.67
2022-11-19T17:23:35.930Z,69.84
2022-11-19T17:26:11.283Z,70.63
2022-11-19T17:28:45.511Z,71.15
2022-11-19T17:31:22.991Z,72.02
2022-11-19T17:34:09.772Z,72.49
2022-11-19T17:36:49.659Z,73.29
2022-11-19T17:39:25.912Z,73.35
2022-11-19T17:42:12.478Z,72.76
2022-11-19T17:44:43.407Z,72.50
2022-11-19T17:47:22.898Z,72.31
2022-11-19T17:49:55.344Z,72.10
2022-11-19T17:52:28.774Z,71.85
2022-11-19T17:55:02.532Z,71.98
2022-11-19T17:57:42.215Z,72.01
2022-11-19T18:00:15.871Z,72.07
2022-11-19T18:02:48.878Z,72.17
2022-11-19T18:05:24.174Z,72.13
2022-11-19T18:07:55.093Z,71.68
2022-11-19T18:10:25.716Z,71.01
2022-11-19T18:12:58.724Z,71.02
2022-11-19T18:15:29.572Z,71.41
2022-11-19T18:18:00.085Z,72.18
2022-11-19T18:20:30.704Z,72.66
2022-11-19T18:23:01.251Z,72.27
2022-11-19T18:25:31.747Z,72.10
2022-11-19T18:28:05.008Z,71.81
2022-11-19T18:30:36.245Z,71.30
2022-11-19T18:33:06.500Z,71.07
2022-11-19T18:35:36.913Z,71.39
2022-11-19T18:38:07.679Z,71.28
2022-11-19T18:40:39.037Z,71.70
2022-11-19T18:43:24.818Z,72.10
2022-11-19T18:45:55.170Z,72.24
2022-11-19T18:48:25.555Z,72.23
2022-11-19T18:50:56.113Z,72.09
2022-11-19T18:53:26.607Z,72.54
2022-11-19T18:55:57.858Z,72.71
2022-11-19T18:58:32.582Z,72.76
2022-11-19T19:01:07.269Z,73.16
2022-11-19T19:03:38.394Z,73.29
2022-11-19T19:06:11.247Z,73.32
2022-11-19T19:08:42.267Z,73.56
2022-11-19T19:11:26.098Z,73.63
2022-11-19T19:13:59.299Z,73.57
2022-11-19T19:16:30.592Z,73.76
2022-11-19T19:19:00.707Z,73.93
2022-11-19T19:21:31.431Z,74.00
2022-11-19T19:24:05.325Z,74.14
2022-11-19T19:26:35.723Z,74.66
2022-11-19T19:29:09.404Z,74.58
2022-11-19T19:31:40.234Z,74.76
2022-11-19T19:34:10.950Z,74.85
2022-11-19T19:36:41.434Z,74.58
2022-11-19T19:39:12.122Z,74.01
2022-11-19T19:41:42.597Z,74.09
2022-11-19T19:44:15.865Z,74.10
2022-11-19T19:46:46.197Z,74.22
2022-11-19T19:49:16.646Z,74.29
2022-11-19T19:51:47.114Z,74.46
2022-11-19T19:54:17.575Z,74.56
2022-11-19T19:56:48.089Z,74.50
2022-11-19T19:59:21.598Z,74.98
2022-11-19T20:01:52.943Z,74.98
2022-11-19T20:04:23.449Z,74.96
2022-11-19T20:06:54.039Z,74.99
2022-11-19T20:09:25.081Z,74.77
2022-11-19T20:11:55.395Z,74.50
2022-11-19T20:14:28.700Z,74.56
2022-11-19T20:16:59.109Z,74.92
2022-11-19T20:19:29.500Z,74.99
2022-11-19T20:22:00.002Z,75.23
2022-11-19T20:24:30.663Z,75.33
2022-11-19T20:27:01.107Z,75.31
2022-11-19T20:29:34.351Z,75.16
2022-11-19T20:32:04.926Z,74.94
2022-11-19T20:34:35.399Z,74.99
2022-11-19T20:37:06.052Z,75.16
2022-11-19T20:39:36.508Z,74.84
2022-11-19T20:42:19.596Z,74.62
2022-11-19T20:44:52.627Z,74.91
2022-11-19T20:47:23.008Z,74.92
2022-11-19T20:49:53.601Z,74.92
2022-11-19T20:52:24.343Z,74.85
2022-11-19T20:54:55.045Z,75.03
2022-11-19T20:57:25.473Z,75.15
2022-11-19T20:59:58.526Z,74.98
2022-11-19T21:02:29.509Z,74.77
2022-11-19T21:05:00.290Z,74.61
2022-11-19T21:07:30.821Z,74.57
2022-11-19T21:10:07.449Z,74.81
2022-11-19T21:12:58.436Z,74.82
2022-11-19T21:15:32.267Z,74.75
2022-11-19T21:18:02.716Z,75.22
2022-11-19T21:20:33.395Z,75.02
2022-11-19T21:23:04.101Z,75.10
2022-11-19T21:25:34.985Z,75.18
2022-11-19T21:28:05.696Z,75.36
2022-11-19T21:30:40.372Z,75.63
2022-11-19T21:33:10.809Z,75.21
2022-11-19T21:35:44.239Z,75.13
2022-11-19T21:38:14.605Z,75.11
2022-11-19T21:40:46.754Z,74.69
2022-11-19T21:43:17.136Z,74.72
2022-11-19T21:45:50.710Z,74.73
2022-11-19T21:48:21.189Z,74.70
2022-11-19T21:50:52.438Z,75.05
2022-11-19T21:53:23.496Z,75.32
2022-11-19T21:55:54.086Z,75.57
2022-11-19T21:58:24.510Z,75.80
2022-11-19T22:01:01.052Z,75.33
2022-11-19T22:03:33.358Z,75.04
2022-11-19T22:06:06.122Z,74.60
2022-11-19T22:08:39.499Z,74.55
2022-11-19T22:11:23.128Z,74.63
2022-11-19T22:13:53.656Z,75.24
2022-11-19T22:16:26.934Z,75.56
2022-11-19T22:18:57.306Z,76.04
2022-11-19T22:21:29.610Z,75.83
2022-11-19T22:24:00.732Z,75.41
2022-11-19T22:26:31.346Z,75.54
2022-11-19T22:29:01.882Z,75.54
2022-11-19T22:31:35.288Z,75.56
2022-11-19T22:34:05.891Z,75.07
2022-11-19T22:36:36.450Z,74.78
2022-11-19T22:39:08.010Z,74.65
2022-11-19T22:41:38.601Z,74.75
2022-11-19T22:44:09.126Z,74.75
2022-11-19T22:46:42.274Z,74.53
2022-11-19T22:49:12.684Z,74.63
2022-11-19T22:51:43.117Z,74.32
2022-11-19T22:54:15.463Z,74.19
2022-11-19T22:56:45.927Z,74.37
2022-11-19T22:59:16.345Z,74.50
2022-11-19T23:01:49.841Z,74.66
2022-11-19T23:04:20.230Z,74.34
2022-11-19T23:06:50.599Z,74.37
2022-11-19T23:09:21.191Z,73.90
2022-11-19T23:12:04.107Z,74.02
2022-11-19T23:14:34.733Z,74.53
2022-11-19T23:17:08.061Z,74.52
2022-11-19T23:19:40.561Z,74.65
2022-11-19T23:22:10.939Z,74.81
2022-11-19T23:24:41.343Z,75.06
2022-11-19T23:27:22.478Z,74.41
2022-11-19T23:29:52.970Z,73.87
2022-11-19T23:32:26.422Z,73.88
2022-11-19T23:34:57.028Z,73.97
2022-11-19T23:37:27.512Z,74.23
2022-11-19T23:39:58.021Z,74.22
2022-11-19T23:42:28.487Z,74.38
2022-11-19T23:44:58.947Z,74.71
2022-11-19T23:47:32.040Z,74.50
2022-11-19T23:50:02.477Z,74.34
2022-11-19T23:52:33.631Z,74.56
2022-11-19T23:55:04.139Z,74.79
2022-11-19T23:57:34.674Z,74.73
